createdAt,value
2023-02-15T00:00:12.472Z,-1.40
2023-02-15T00:02:40.951Z,-1.34
2023-02-15T00:05:09.691Z,-1.47
2023-02-15T00:07:38.925Z,-1.45
2023-02-15T00:10:08.252Z,-1.51
2023-02-15T00:12:36.118Z,-1.34
2023-02-15T00:15:04.024Z,-1.22
2023-02-15T00:17:32.160Z,-1.27
2023-02-15T00:20:00.090Z,-1.22
2023-02-15T00:22:28.304Z,-1.42
2023-02-15T00:24:57.547Z,-1.59
2023-02-15T00:27:25.954Z,-1.69
2023-02-15T00:29:53.951Z,-1.82
2023-02-15T00:32:21.858Z,-1.80
2023-02-15T00:34:49.759Z,-1.86
2023-02-15T00:37:17.690Z,-1.80
2023-02-15T00:39:45.578Z,-1.74
2023-02-15T00:42:14.837Z,-1.66
2023-02-15T00:44:42.684Z,-1.64
2023-02-15T00:47:10.555Z,-1.64
2023-02-15T00:49:38.441Z,-1.62
2023-02-15T00:52:06.420Z,-1.72
2023-02-15T00:54:35.547Z,-1.53
2023-02-15T00:57:03.368Z,-1.59
2023-02-15T00:59:35.990Z,-1.72
2023-02-15T01:02:03.907Z,-1.55
2023-02-15T01:04:31.897Z,-1.40
2023-02-15T01:06:59.928Z,-1.35
2023-02-15T01:09:27.917Z,-1.43
2023-02-15T01:11:55.836Z,-1.59
2023-02-15T01:14:25.008Z,-1.58
2023-02-15T01:16:54.475Z,-1.59
2023-02-15T01:19:22.367Z,-1.64
2023-02-15T01:21:50.291Z,-1.52
2023-02-15T01:24:18.134Z,-1.48
2023-02-15T01:26:45.992Z,-1.58
2023-02-15T01:29:13.880Z,-1.61
2023-02-15T01:31:41.791Z,-1.42
2023-02-15T01:34:11.084Z,-1.29
2023-02-15T01:36:38.923Z,-1.25
2023-02-15T01:39:08.680Z,-1.27
2023-02-15T01:41:36.540Z,-1.15
2023-02-15T01:44:05.689Z,-1.25
2023-02-15T01:46:39.310Z,-1.41
2023-02-15T01:49:16.562Z,-1.46
2023-02-15T01:51:48.367Z,-1.59
2023-02-15T01:54:26.262Z,-1.55
2023-02-15T01:56:56.909Z,-1.48
2023-02-15T01:59:27.549Z,-1.38
2023-02-15T02:02:01.578Z,-1.54
2023-02-15T02:04:37.921Z,-1.52
2023-02-15T02:07:07.276Z,-1.64
2023-02-15T02:09:35.227Z,-1.61
2023-02-15T02:12:04.026Z,-1.63
2023-02-15T02:14:32.137Z,-1.70
2023-02-15T02:17:09.023Z,-1.63
2023-02-15T02:20:09.424Z,-1.90
2023-02-15T02:23:23.189Z,-1.64
2023-02-15T02:26:19.411Z,-1.67
2023-02-15T02:29:20.715Z,-1.77
2023-02-15T02:32:19.682Z,-1.83
2023-02-15T02:34:58.570Z,-1.92
2023-02-15T02:37:37.189Z,-1.83
2023-02-15T02:40:14.043Z,-1.64
2023-02-15T02:42:46.078Z,-1.68
2023-02-15T02:45:22.225Z,-1.67
2023-02-15T02:47:57.818Z,-1.77
2023-02-15T02:50:31.182Z,-1.88
2023-02-15T02:53:00.966Z,-2.01
2023-02-15T02:55:36.574Z,-1.94
2023-02-15T02:58:12.479Z,-1.89
2023-02-15T03:00:46.915Z,-1.98
2023-02-15T03:03:24.701Z,-1.93
2023-02-15T03:05:59.682Z,-2.00
2023-02-15T03:08:33.856Z,-1.93
2023-02-15T03:11:05.281Z,-1.72
2023-02-15T03:13:36.043Z,-1.79
2023-02-15T03:16:25.107Z,-1.91
2023-02-15T03:18:59.227Z,-1.83
2023-02-15T03:21:35.832Z,-1.80
2023-02-15T03:24:10.018Z,-1.71
2023-02-15T03:26:39.814Z,-1.91
2023-02-15T03:29:12.160Z,-1.87
2023-02-15T03:31:46.179Z,-1.92
2023-02-15T03:34:17.382Z,-1.96
2023-02-15T03:36:54.612Z,-1.80
2023-02-15T03:39:31.870Z,-1.80
2023-02-15T03:42:07.649Z,-1.77
2023-02-15T03:44:46.157Z,-1.89
2023-02-15T03:47:18.937Z,-2.02
2023-02-15T03:49:54.351Z,-1.92
2023-02-15T03:52:29.443Z,-1.94
2023-02-15T03:54:57.559Z,-1.76
2023-02-15T03:57:46.035Z,-1.75
2023-02-15T04:00:36.263Z,-1.88
2023-02-15T04:03:25.766Z,-1.90
2023-02-15T04:05:53.879Z,-1.79
2023-02-15T04:08:43.235Z,-1.80
2023-02-15T04:11:10.146Z,-1.77
2023-02-15T04:13:38.078Z,-1.92
2023-02-15T04:16:06.078Z,-1.92
2023-02-15T04:18:53.992Z,-1.86
2023-02-15T04:21:41.374Z,-1.71
2023-02-15T04:24:28.854Z,-1.96
2023-02-15T04:26:57.735Z,-1.83
2023-02-15T04:29:27.380Z,-2.03
2023-02-15T04:31:57.804Z,-1.77
2023-02-15T04:34:26.486Z,-1.92
2023-02-15T04:36:54.348Z,-1.95
2023-02-15T04:39:23.601Z,-2.12
2023-02-15T04:41:51.545Z,-2.12
2023-02-15T04:44:19.432Z,-2.22
2023-02-15T04:46:47.326Z,-2.25
2023-02-15T04:49:15.204Z,-2.35
2023-02-15T04:51:43.153Z,-2.20
2023-02-15T04:54:11.037Z,-2.33
2023-02-15T04:56:40.267Z,-2.26
2023-02-15T04:59:08.196Z,-2.31
2023-02-15T05:01:36.096Z,-2.39
2023-02-15T05:04:04.087Z,-2.31
2023-02-15T05:06:32.052Z,-2.16
2023-02-15T05:09:00.404Z,-2.11
2023-02-15T05:11:29.096Z,-2.12
2023-02-15T05:13:58.374Z,-2.14
2023-02-15T05:16:26.739Z,-2.17
2023-02-15T05:18:54.597Z,-2.23
2023-02-15T05:21:22.519Z,-2.34
2023-02-15T05:23:50.420Z,-2.27
2023-02-15T05:26:39.519Z,-2.18
2023-02-15T05:29:09.858Z,-2.12
2023-02-15T05:31:38.193Z,-2.18
2023-02-15T05:34:06.165Z,-2.20
2023-02-15T05:36:34.026Z,-2.09
2023-02-15T05:39:01.874Z,-2.08
2023-02-15T05:41:29.799Z,-2.18
2023-02-15T05:43:58.307Z,-2.24
2023-02-15T05:46:27.531Z,-2.28
2023-02-15T05:48:55.403Z,-2.11
2023-02-15T05:51:23.289Z,-2.17
2023-02-15T05:53:51.196Z,-2.18
2023-02-15T05:56:19.084Z,-2.10
2023-02-15T05:58:46.949Z,-2.02
2023-02-15T06:01:18.111Z,-1.99
2023-02-15T06:03:47.911Z,-2.15
2023-02-15T06:06:15.850Z,-2.30
2023-02-15T06:08:44.336Z,-2.49
2023-02-15T06:11:12.890Z,-2.33
2023-02-15T06:13:40.789Z,-2.30
2023-02-15T06:16:08.996Z,-2.24
2023-02-15T06:18:36.932Z,-2.14
2023-02-15T06:21:06.293Z,-2.14
2023-02-15T06:23:34.188Z,-2.30
2023-02-15T06:26:02.398Z,-2.35
2023-02-15T06:28:30.509Z,-2.30
2023-02-15T06:30:58.562Z,-2.35
2023-02-15T06:33:26.685Z,-2.23
2023-02-15T06:35:54.595Z,-2.49
2023-02-15T06:38:24.076Z,-2.34
2023-02-15T06:40:52.025Z,-2.41
2023-02-15T06:43:19.924Z,-2.58
2023-02-15T06:45:47.875Z,-2.40
2023-02-15T06:48:15.745Z,-2.12
2023-02-15T06:50:43.844Z,-2.04
2023-02-15T06:53:11.753Z,-1.93
2023-02-15T06:55:40.968Z,-1.88
2023-02-15T06:58:08.843Z,-2.09
2023-02-15T07:00:39.739Z,-1.92
2023-02-15T07:03:07.603Z,-2.11
2023-02-15T07:05:36.916Z,-2.19
2023-02-15T07:08:05.304Z,-2.28
2023-02-15T07:10:33.183Z,-2.03
2023-02-15T07:13:01.443Z,-2.23
2023-02-15T07:15:29.434Z,-2.07
2023-02-15T07:17:58.841Z,-2.04
2023-02-15T07:20:26.805Z,-1.98
2023-02-15T07:22:54.707Z,-1.93
2023-02-15T07:25:22.562Z,-2.10
2023-02-15T07:27:50.415Z,-2.27
2023-02-15T07:30:19.813Z,-2.34
2023-02-15T07:33:06.007Z,-2.40
2023-02-15T07:35:34.121Z,-2.47
2023-02-15T07:38:02.467Z,-2.36
2023-02-15T07:40:30.354Z,-2.43
2023-02-15T07:43:00.476Z,-2.45
2023-02-15T07:45:29.733Z,-2.15
2023-02-15T07:47:57.684Z,-2.24
2023-02-15T07:50:25.624Z,-2.31
2023-02-15T07:52:53.508Z,-2.15
2023-02-15T07:55:21.822Z,-2.16
2023-02-15T07:57:52.322Z,-1.98
2023-02-15T08:00:25.639Z,-1.77
2023-02-15T08:03:10.704Z,-1.73
2023-02-15T08:05:38.794Z,-2.11
2023-02-15T08:08:07.251Z,-2.05
2023-02-15T08:10:52.677Z,-1.96
2023-02-15T08:13:20.554Z,-2.06
2023-02-15T08:15:51.737Z,-2.01
2023-02-15T08:18:20.963Z,-1.83
2023-02-15T08:20:51.907Z,-2.06
2023-02-15T08:23:19.781Z,-1.98
2023-02-15T08:25:47.731Z,-1.83
2023-02-15T08:28:15.582Z,-1.77
2023-02-15T08:30:43.443Z,-1.80
2023-02-15T08:33:11.548Z,-1.71
2023-02-15T08:35:40.782Z,-1.59
2023-02-15T08:38:08.682Z,-1.75
2023-02-15T08:40:39.009Z,-1.85
2023-02-15T08:43:08.085Z,-1.58
2023-02-15T08:45:35.972Z,-1.49
2023-02-15T08:48:03.853Z,-1.58
2023-02-15T08:50:31.826Z,-1.33
2023-02-15T08:53:01.069Z,-1.11
2023-02-15T08:55:28.938Z,-1.38
2023-02-15T08:57:56.844Z,-1.58
2023-02-15T09:00:26.107Z,-1.64
2023-02-15T09:02:54.356Z,-1.72
2023-02-15T09:05:22.253Z,-1.72
2023-02-15T09:07:50.143Z,-1.42
2023-02-15T09:10:19.794Z,-1.49
2023-02-15T09:12:47.905Z,-1.38
2023-02-15T09:15:15.884Z,-1.43
2023-02-15T09:17:43.778Z,-1.08
2023-02-15T09:20:12.121Z,-0.89
2023-02-15T09:22:40.020Z,-0.95
2023-02-15T09:25:08.139Z,-1.01
2023-02-15T09:27:37.744Z,-1.15
2023-02-15T09:30:06.852Z,-1.12
2023-02-15T09:32:34.786Z,-1.17
2023-02-15T09:35:02.646Z,-1.26
2023-02-15T09:37:32.739Z,-1.27
2023-02-15T09:40:01.163Z,-1.06
2023-02-15T09:43:04.592Z,-1.05
2023-02-15T09:45:49.704Z,-0.90
2023-02-15T09:48:40.493Z,-0.96
2023-02-15T09:51:39.015Z,-0.87
2023-02-15T09:54:32.720Z,-0.87
2023-02-15T09:57:10.496Z,-0.86
2023-02-15T09:59:52.773Z,-0.99
2023-02-15T10:02:41.161Z,-0.81
2023-02-15T10:05:27.370Z,-0.60
2023-02-15T10:08:24.321Z,-0.33
2023-02-15T10:11:24.490Z,-0.43
2023-02-15T10:14:09.903Z,-0.23
2023-02-15T10:16:48.641Z,-0.32
2023-02-15T10:19:34.758Z,-0.24
2023-02-15T10:22:23.220Z,-0.32
2023-02-15T10:25:18.372Z,-0.14
2023-02-15T10:27:49.447Z,-0.17
2023-02-15T10:30:20.063Z,-0.20
2023-02-15T10:33:01.002Z,-0.25
2023-02-15T10:35:41.139Z,-0.35
2023-02-15T10:38:23.740Z,-0.31
2023-02-15T10:41:10.874Z,0.10
2023-02-15T10:44:00.225Z,0.10
2023-02-15T10:46:48.464Z,0.11
2023-02-15T10:49:39.842Z,0.00
2023-02-15T10:52:30.296Z,0.21
2023-02-15T10:55:09.938Z,0.34
2023-02-15T10:57:54.588Z,0.00
2023-02-15T11:00:32.093Z,-0.04
2023-02-15T11:03:23.345Z,0.14
2023-02-15T11:06:04.798Z,0.33
2023-02-15T11:08:39.076Z,0.42
2023-02-15T11:11:11.707Z,0.44
2023-02-15T11:13:47.367Z,0.57
2023-02-15T11:16:19.468Z,0.62
2023-02-15T11:18:53.574Z,0.61
2023-02-15T11:21:28.168Z,0.48
2023-02-15T11:23:57.956Z,0.53
2023-02-15T11:26:33.719Z,0.53
2023-02-15T11:29:12.619Z,0.61
2023-02-15T11:31:47.184Z,0.65
2023-02-15T11:34:22.687Z,0.40
2023-02-15T11:36:56.971Z,0.54
2023-02-15T11:39:32.688Z,0.52
2023-02-15T11:42:09.036Z,0.58
2023-02-15T11:44:43.898Z,0.57
2023-02-15T11:47:13.836Z,0.80
2023-02-15T11:49:42.155Z,0.77
2023-02-15T11:52:16.857Z,0.76
2023-02-15T11:54:51.032Z,0.74
2023-02-15T11:57:27.340Z,0.83
2023-02-15T12:00:00.680Z,0.45
2023-02-15T12:02:31.035Z,0.40
2023-02-15T12:05:05.192Z,0.57
2023-02-15T12:07:38.914Z,0.93
2023-02-15T12:10:22.561Z,0.78
2023-02-15T12:12:50.519Z,1.07
2023-02-15T12:15:33.642Z,1.02
2023-02-15T12:18:01.667Z,0.98
2023-02-15T12:20:34.436Z,0.97
2023-02-15T12:23:06.505Z,0.85
2023-02-15T12:25:42.381Z,0.87
2023-02-15T12:28:27.622Z,0.82
2023-02-15T12:30:58.376Z,0.63
2023-02-15T12:33:32.321Z,0.97
2023-02-15T12:36:05.696Z,1.05
2023-02-15T12:38:36.789Z,0.86
2023-02-15T12:41:22.059Z,0.78
2023-02-15T12:44:07.221Z,1.03
2023-02-15T12:46:38.904Z,1.05
2023-02-15T12:49:09.883Z,0.94
2023-02-15T12:51:49.665Z,1.08
2023-02-15T12:54:32.917Z,1.16
2023-02-15T12:57:17.000Z,1.07
2023-02-15T12:59:52.305Z,1.17
2023-02-15T13:02:29.313Z,1.24
2023-02-15T13:05:06.332Z,1.22
2023-02-15T13:07:35.006Z,1.19
2023-02-15T13:10:03.256Z,1.29
2023-02-15T13:12:34.629Z,1.27
2023-02-15T13:15:04.074Z,1.07
2023-02-15T13:17:35.495Z,1.10
2023-02-15T13:20:12.683Z,0.89
2023-02-15T13:22:46.616Z,1.03
2023-02-15T13:25:21.012Z,1.01
2023-02-15T13:27:54.593Z,0.94
2023-02-15T13:30:28.144Z,1.14
2023-02-15T13:33:02.916Z,1.08
2023-02-15T13:35:41.444Z,1.08
2023-02-15T13:38:27.687Z,1.27
2023-02-15T13:41:00.859Z,1.26
2023-02-15T13:43:45.744Z,1.28
2023-02-15T13:46:37.444Z,1.26
2023-02-15T13:49:20.815Z,1.29
2023-02-15T13:52:01.233Z,1.30
2023-02-15T13:54:49.524Z,1.24
2023-02-15T13:57:37.718Z,1.37
2023-02-15T14:00:23.307Z,1.40
2023-02-15T14:03:11.121Z,1.40
2023-02-15T14:05:59.081Z,1.53
2023-02-15T14:08:45.318Z,1.58
2023-02-15T14:11:24.727Z,1.67
2023-02-15T14:14:28.438Z,1.50
2023-02-15T14:17:10.706Z,1.37
2023-02-15T14:19:50.771Z,1.28
2023-02-15T14:22:32.931Z,1.18
2023-02-15T14:25:19.214Z,1.06
2023-02-15T14:28:01.264Z,0.93
2023-02-15T14:30:35.517Z,1.11
2023-02-15T14:33:09.890Z,1.33
2023-02-15T14:35:39.332Z,1.49
2023-02-15T14:38:22.494Z,1.53
2023-02-15T14:41:02.563Z,1.05
2023-02-15T14:43:49.856Z,0.80
2023-02-15T14:46:28.838Z,0.71
2023-02-15T14:49:09.245Z,0.57
2023-02-15T14:51:58.962Z,0.32
2023-02-15T14:54:56.039Z,0.53
2023-02-15T14:57:33.377Z,0.64
2023-02-15T15:00:25.869Z,0.64
2023-02-15T15:02:55.472Z,0.65
2023-02-15T15:05:36.776Z,0.65
2023-02-15T15:08:06.822Z,0.65
2023-02-15T15:10:46.178Z,0.35
2023-02-15T15:13:38.953Z,0.28
2023-02-15T15:16:27.719Z,0.23
2023-02-15T15:18:56.057Z,0.17
2023-02-15T15:22:04.471Z,0.25
2023-02-15T15:24:53.196Z,0.40
2023-02-15T15:27:55.286Z,0.47
2023-02-15T15:30:52.200Z,0.58
2023-02-15T15:34:01.819Z,0.41
2023-02-15T15:36:57.220Z,0.49
2023-02-15T15:40:13.977Z,0.25
2023-02-15T15:42:52.557Z,0.09
2023-02-15T15:45:50.578Z,-0.21
2023-02-15T15:48:34.585Z,-0.15
2023-02-15T15:51:07.623Z,-0.05
2023-02-15T15:53:43.340Z,0.02
2023-02-15T15:56:18.569Z,0.11
2023-02-15T15:58:52.174Z,0.13
2023-02-15T16:01:28.983Z,0.24
2023-02-15T16:03:59.759Z,0.06
2023-02-15T16:06:34.275Z,0.00
2023-02-15T16:09:13.946Z,-0.13
2023-02-15T16:11:43.927Z,-0.23
2023-02-15T16:14:19.425Z,-0.26
2023-02-15T16:16:54.191Z,-0.31
2023-02-15T16:19:26.294Z,-0.21
2023-02-15T16:21:57.036Z,-0.26
2023-02-15T16:24:36.426Z,-0.49
2023-02-15T16:27:27.893Z,-0.50
2023-02-15T16:29:55.913Z,-0.44
2023-02-15T16:32:25.685Z,-0.48
2023-02-15T16:34:55.978Z,-0.49
2023-02-15T16:37:27.867Z,-0.50
2023-02-15T16:39:57.563Z,-0.67
2023-02-15T16:42:27.295Z,-0.58
2023-02-15T16:45:01.289Z,-0.47
2023-02-15T16:47:33.353Z,-0.45
2023-02-15T16:50:06.066Z,-0.39
2023-02-15T16:52:34.560Z,-0.45
2023-02-15T16:55:08.054Z,-0.38
2023-02-15T16:57:40.373Z,-0.60
2023-02-15T17:00:24.406Z,-0.71
2023-02-15T17:03:00.038Z,-0.90
2023-02-15T17:05:34.063Z,-0.83
2023-02-15T17:08:18.066Z,-0.98
2023-02-15T17:11:03.896Z,-1.06
2023-02-15T17:13:33.713Z,-1.06
2023-02-15T17:16:30.416Z,-0.97
2023-02-15T17:18:59.808Z,-0.85
2023-02-15T17:21:34.457Z,-0.86
2023-02-15T17:24:05.210Z,-0.79
2023-02-15T17:26:36.822Z,-0.84
2023-02-15T17:29:28.716Z,-0.92
2023-02-15T17:31:59.491Z,-1.09
2023-02-15T17:35:09.075Z,-1.22
2023-02-15T17:37:48.871Z,-1.39
2023-02-15T17:40:26.281Z,-1.51
2023-02-15T17:42:55.142Z,-1.60
2023-02-15T17:45:28.051Z,-1.62
2023-02-15T17:47:58.156Z,-1.51
2023-02-15T17:50:29.217Z,-1.38
2023-02-15T17:52:59.501Z,-1.40
2023-02-15T17:55:38.976Z,-1.48
2023-02-15T17:58:09.552Z,-1.51
2023-02-15T18:01:01.981Z,-1.59
2023-02-15T18:03:59.126Z,-1.64
2023-02-15T18:06:45.043Z,-1.66
2023-02-15T18:09:32.696Z,-1.69
2023-02-15T18:12:00.813Z,-1.73
2023-02-15T18:14:28.737Z,-1.77
2023-02-15T18:16:58.167Z,-1.80
2023-02-15T18:19:28.723Z,-1.75
2023-02-15T18:21:57.962Z,-1.80
2023-02-15T18:24:27.866Z,-1.80
2023-02-15T18:26:56.021Z,-1.82
2023-02-15T18:29:23.992Z,-1.80
2023-02-15T18:31:56.965Z,-1.75
2023-02-15T18:34:30.808Z,-1.78
2023-02-15T18:37:03.107Z,-1.78
2023-02-15T18:39:38.952Z,-1.82
2023-02-15T18:42:08.050Z,-1.85
2023-02-15T18:44:35.920Z,-1.76
2023-02-15T18:47:03.911Z,-1.77
2023-02-15T18:49:33.199Z,-1.84
2023-02-15T18:52:03.000Z,-1.88
2023-02-15T18:54:31.098Z,-1.96
2023-02-15T18:57:01.873Z,-1.92
2023-02-15T18:59:31.199Z,-1.83
2023-02-15T19:02:00.488Z,-1.88
2023-02-15T19:04:28.519Z,-1.85
2023-02-15T19:06:57.810Z,-1.91
2023-02-15T19:09:27.819Z,-1.93
2023-02-15T19:11:57.576Z,-1.86
2023-02-15T19:14:28.614Z,-1.84
2023-02-15T19:16:57.727Z,-1.92
2023-02-15T19:19:26.201Z,-2.06
2023-02-15T19:21:55.086Z,-2.00
2023-02-15T19:24:32.174Z,-1.96
2023-02-15T19:27:00.202Z,-1.91
2023-02-15T19:29:32.048Z,-1.97
2023-02-15T19:32:00.153Z,-1.94
2023-02-15T19:34:28.878Z,-2.01
2023-02-15T19:36:57.782Z,-2.00
2023-02-15T19:39:31.172Z,-2.00
2023-02-15T19:41:59.089Z,-2.03
2023-02-15T19:44:27.015Z,-2.01
2023-02-15T19:46:54.961Z,-2.04
2023-02-15T19:49:22.905Z,-2.15
2023-02-15T19:51:51.181Z,-2.20
2023-02-15T19:54:30.932Z,-2.23
2023-02-15T19:56:59.079Z,-2.29
2023-02-15T19:59:29.752Z,-2.24
2023-02-15T20:01:58.572Z,-2.25
2023-02-15T20:04:27.706Z,-2.13
2023-02-15T20:06:59.000Z,-2.06
2023-02-15T20:09:32.696Z,-2.08
2023-02-15T20:12:01.483Z,-2.18
2023-02-15T20:14:29.712Z,-2.20
2023-02-15T20:16:57.603Z,-2.22
2023-02-15T20:19:25.602Z,-2.15
2023-02-15T20:21:55.002Z,-2.19
2023-02-15T20:24:28.080Z,-2.16
2023-02-15T20:26:57.538Z,-2.18
2023-02-15T20:29:25.433Z,-2.19
2023-02-15T20:31:55.367Z,-2.13
2023-02-15T20:34:23.563Z,-2.19
2023-02-15T20:36:52.565Z,-2.19
2023-02-15T20:39:20.730Z,-2.14
2023-02-15T20:41:48.719Z,-2.09
2023-02-15T20:44:23.942Z,-2.07
2023-02-15T20:46:54.196Z,-2.12
2023-02-15T20:49:23.978Z,-2.13
2023-02-15T20:51:53.142Z,-2.15
2023-02-15T20:54:23.885Z,-2.18
2023-02-15T20:56:52.407Z,-2.16
2023-02-15T20:59:27.338Z,-2.15
2023-02-15T21:02:00.341Z,-2.18
2023-02-15T21:04:32.356Z,-2.16
2023-02-15T21:07:02.171Z,-2.03
2023-02-15T21:09:30.752Z,-2.05
2023-02-15T21:12:02.278Z,-2.08
2023-02-15T21:14:31.591Z,-2.15
2023-02-15T21:16:59.434Z,-2.15
2023-02-15T21:19:28.271Z,-2.16
2023-02-15T21:21:57.383Z,-2.12
2023-02-15T21:24:28.978Z,-2.10
2023-02-15T21:27:01.223Z,-2.12
2023-02-15T21:29:31.844Z,-2.14
2023-02-15T21:32:00.557Z,-2.14
2023-02-15T21:34:28.503Z,-2.15
2023-02-15T21:36:56.584Z,-2.09
2023-02-15T21:39:27.170Z,-2.11
2023-02-15T21:42:14.649Z,-2.11
2023-02-15T21:45:01.437Z,-2.18
2023-02-15T21:47:48.523Z,-2.11
2023-02-15T21:50:36.077Z,-2.15
2023-02-15T21:53:05.697Z,-2.09
2023-02-15T21:55:34.388Z,-2.11
2023-02-15T21:58:02.425Z,-2.10
2023-02-15T22:00:33.607Z,-2.11
2023-02-15T22:03:02.090Z,-2.12
2023-02-15T22:05:32.170Z,-2.13
2023-02-15T22:08:00.391Z,-2.10
2023-02-15T22:10:31.950Z,-2.14
2023-02-15T22:13:02.603Z,-2.15
2023-02-15T22:15:36.778Z,-2.16
2023-02-15T22:18:05.921Z,-2.16
2023-02-15T22:20:33.790Z,-2.10
2023-02-15T22:23:01.692Z,-2.09
2023-02-15T22:25:29.653Z,-2.06
2023-02-15T22:27:57.862Z,-2.11
2023-02-15T22:30:29.072Z,-2.08
2023-02-15T22:33:00.429Z,-2.03
2023-02-15T22:35:31.121Z,-2.13
2023-02-15T22:37:59.212Z,-2.16
2023-02-15T22:40:31.037Z,-2.05
2023-02-15T22:43:02.217Z,-2.06
2023-02-15T22:45:30.259Z,-1.95
2023-02-15T22:48:02.808Z,-1.92
2023-02-15T22:50:33.767Z,-1.89
2023-02-15T22:53:03.889Z,-1.93
2023-02-15T22:55:37.312Z,-1.84
2023-02-15T22:58:06.300Z,-1.75
2023-02-15T23:00:40.663Z,-1.78
2023-02-15T23:03:16.751Z,-1.85
2023-02-15T23:05:45.622Z,-1.92
2023-02-15T23:08:14.392Z,-1.83
2023-02-15T23:10:44.955Z,-1.92
2023-02-15T23:13:25.621Z,-1.85
2023-02-15T23:15:56.941Z,-1.97
2023-02-15T23:18:29.793Z,-1.88
2023-02-15T23:20:59.926Z,-1.84
2023-02-15T23:23:32.055Z,-1.73
2023-02-15T23:26:03.147Z,-1.79
2023-02-15T23:28:35.920Z,-1.74
2023-02-15T23:31:07.201Z,-1.76
2023-02-15T23:33:37.521Z,-1.72
2023-02-15T23:36:06.110Z,-1.79
2023-02-15T23:38:34.379Z,-1.79
2023-02-15T23:41:19.056Z,-1.87
2023-02-15T23:43:50.867Z,-1.93
2023-02-15T23:46:27.696Z,-1.89
2023-02-15T23:48:57.377Z,-1.84
2023-02-15T23:51:31.089Z,-1.71
2023-02-15T23:53:59.410Z,-1.69
2023-02-15T23:56:27.519Z,-1.65
2023-02-15T23:58:55.644Z,-1.72
